Battle Ground, Indiana
Current Conditions -  °F | °C
As of 5:54 PM on Friday 19 Dec 2014 (Local Time) from KLAF Reporting Station
Overcast Overcast  
Wind Chill: 29°   Ceiling: 2500
Heat Index: 29°   Visibility: 8mi
Dew Point: 26°   Wind: 0mph
Humidity: 89%   Direction: NA
Pressure: 30.31"   Gusts: NA
Location:  40.51°N, 86.84°W
Report Text: KLAF 192254Z 00000KT 8SM OVC025 M02/M03 A3031 RMK AO2 SLP271 T10171033
Loading
Personal Weather Stations






























Interactive Weather Map New forecast layout! Learn more

10-Day Weather Forecast

Advertisements
Track Severe Weather on mobile